sensor_id;sensor_type;location;lat;lon;timestamp;pressure;altitude;pressure_sealevel;temperature
37414;BMP280;23279;46.472;30.760;2022-12-18T00:01:37;78512.16;;;-146.33
37414;BMP280;23279;46.472;30.760;2022-12-18T00:04:03;78524.38;;;-146.33
37414;BMP280;23279;46.472;30.760;2022-12-18T00:06:29;78524.38;;;-146.33
37414;BMP280;23279;46.472;30.760;2022-12-18T00:08:55;78524.38;;;-146.33
37414;BMP280;23279;46.472;30.760;2022-12-18T00:11:21;78536.59;;;-146.33
37414;BMP280;23279;46.472;30.760;2022-12-18T00:13:47;78581.34;;;-146.33
37414;BMP280;23279;46.472;30.760;2022-12-18T00:16:14;78618.00;;;-146.33
37414;BMP280;23279;46.472;30.760;2022-12-18T00:18:39;78618.00;;;-146.33
37414;BMP280;23279;46.472;30.760;2022-12-18T00:21:06;78640.38;;;-146.33
37414;BMP280;23279;46.472;30.760;2022-12-18T00:23:31;78668.88;;;-146.33
37414;BMP280;23279;46.472;30.760;2022-12-18T00:26:00;78701.44;;;-146.33
37414;BMP280;23279;46.472;30.760;2022-12-18T00:28:26;78713.66;;;-146.33
37414;BMP280;23279;46.472;30.760;2022-12-18T00:30:59;78721.81;;;-146.33
37414;BMP280;23279;46.472;30.760;2022-12-18T00:33:25;78734.00;;;-146.33
37414;BMP280;23279;46.472;30.760;2022-12-18T00:35:50;78725.88;;;-146.33
37414;BMP280;23279;46.472;30.760;2022-12-18T00:38:15;78762.50;;;-146.33
37414;BMP280;23279;46.472;30.760;2022-12-18T00:40:40;78758.44;;;-146.33
37414;BMP280;23279;46.472;30.760;2022-12-18T00:43:06;78768.63;;;-146.33
37414;BMP280;23279;46.472;30.760;2022-12-18T00:45:34;78760.47;;;-146.33
37414;BMP280;23279;46.472;30.760;2022-12-18T00:47:59;78784.91;;;-146.33
37414;BMP280;23279;46.472;30.760;2022-12-18T00:50:24;78791.00;;;-146.33
37414;BMP280;23279;46.472;30.760;2022-12-18T00:52:50;78797.09;;;-146.33
37414;BMP280;23279;46.472;30.760;2022-12-18T00:55:15;78795.06;;;-146.33
37414;BMP280;23279;46.472;30.760;2022-12-18T00:57:41;78782.88;;;-146.33
37414;BMP280;23279;46.472;30.760;2022-12-18T01:00:08;78782.88;;;-146.33
37414;BMP280;23279;46.472;30.760;2022-12-18T01:02:34;78784.91;;;-146.33
37414;BMP280;23279;46.472;30.760;2022-12-18T01:04:59;78797.09;;;-146.33
37414;BMP280;23279;46.472;30.760;2022-12-18T01:07:25;78797.09;;;-146.33
37414;BMP280;23279;46.472;30.760;2022-12-18T01:09:50;78813.41;;;-146.33
37414;BMP280;23279;46.472;30.760;2022-12-18T01:12:15;78819.50;;;-146.33
37414;BMP280;23279;46.472;30.760;2022-12-18T01:14:41;78858.19;;;-146.33
37414;BMP280;23279;46.472;30.760;2022-12-18T01:17:06;78890.75;;;-146.33
37414;BMP280;23279;46.472;30.760;2022-12-18T01:19:31;78896.84;;;-146.33
37414;BMP280;23279;46.472;30.760;2022-12-18T01:21:57;78923.31;;;-146.33
37414;BMP280;23279;46.472;30.760;2022-12-18T01:24:22;78964.03;;;-146.33
37414;BMP280;23279;46.472;30.760;2022-12-18T01:26:47;78957.91;;;-146.33
37414;BMP280;23279;46.472;30.760;2022-12-18T01:29:13;78962.00;;;-146.33
37414;BMP280;23279;46.472;30.760;2022-12-18T01:31:38;78968.09;;;-146.33
37414;BMP280;23279;46.472;30.760;2022-12-18T01:34:04;79000.66;;;-146.33
37414;BMP280;23279;46.472;30.760;2022-12-18T01:36:30;78990.50;;;-146.33
37414;BMP280;23279;46.472;30.760;2022-12-18T01:38:56;79043.41;;;-146.33
37414;BMP280;23279;46.472;30.760;2022-12-18T01:41:25;79041.38;;;-146.33
37414;BMP280;23279;46.472;30.760;2022-12-18T01:43:52;79033.22;;;-146.33
37414;BMP280;23279;46.472;30.760;2022-12-18T01:46:19;79041.38;;;-146.33
37414;BMP280;23279;46.472;30.760;2022-12-18T01:48:46;79045.44;;;-146.33
37414;BMP280;23279;46.472;30.760;2022-12-18T01:51:12;79033.22;;;-146.33
37414;BMP280;23279;46.472;30.760;2022-12-18T01:53:37;79045.44;;;-146.33
37414;BMP280;23279;46.472;30.760;2022-12-18T01:56:03;79057.66;;;-146.33
37414;BMP280;23279;46.472;30.760;2022-12-18T01:58:37;79055.63;;;-146.33
37414;BMP280;23279;46.472;30.760;2022-12-18T02:01:04;79084.13;;;-146.33
37414;BMP280;23279;46.472;30.760;2022-12-18T02:03:30;79094.31;;;-146.33
37414;BMP280;23279;46.472;30.760;2022-12-18T02:08:38;79135.00;;;-146.33
37414;BMP280;23279;46.472;30.760;2022-12-18T02:16:29;79165.56;;;-146.33
37414;BMP280;23279;46.472;30.760;2022-12-18T02:18:53;79155.38;;;-146.33
37414;BMP280;23279;46.472;30.760;2022-12-18T02:28:37;79175.72;;;-146.33
37414;BMP280;23279;46.472;30.760;2022-12-18T02:31:06;79179.81;;;-146.33
37414;BMP280;23279;46.472;30.760;2022-12-18T02:33:33;79151.31;;;-146.33
37414;BMP280;23279;46.472;30.760;2022-12-18T02:36:00;79167.59;;;-146.33
37414;BMP280;23279;46.472;30.760;2022-12-18T02:38:26;79135.00;;;-146.33
37414;BMP280;23279;46.472;30.760;2022-12-18T02:40:53;79149.25;;;-146.33
37414;BMP280;23279;46.472;30.760;2022-12-18T02:43:19;79179.81;;;-146.33
37414;BMP280;23279;46.472;30.760;2022-12-18T02:45:54;79196.09;;;-146.33
37414;BMP280;23279;46.472;30.760;2022-12-18T02:48:24;79187.94;;;-146.33
37414;BMP280;23279;46.472;30.760;2022-12-18T02:50:54;79187.94;;;-146.33
37414;BMP280;23279;46.472;30.760;2022-12-18T02:53:24;79226.63;;;-146.33
37414;BMP280;23279;46.472;30.760;2022-12-18T02:58:19;79267.34;;;-146.33
37414;BMP280;23279;46.472;30.760;2022-12-18T03:00:51;79293.81;;;-146.33
37414;BMP280;23279;46.472;30.760;2022-12-18T03:05:53;79320.28;;;-146.33
37414;BMP280;23279;46.472;30.760;2022-12-18T03:08:21;79344.69;;;-146.33
37414;BMP280;23279;46.472;30.760;2022-12-18T03:11:09;79354.88;;;-146.33
37414;BMP280;23279;46.472;30.760;2022-12-18T03:13:40;79338.59;;;-146.33
37414;BMP280;23279;46.472;30.760;2022-12-18T03:16:07;79367.09;;;-146.33
37414;BMP280;23279;46.472;30.760;2022-12-18T03:18:35;79363.03;;;-146.33
37414;BMP280;23279;46.472;30.760;2022-12-18T03:21:02;79356.91;;;-146.33
37414;BMP280;23279;46.472;30.760;2022-12-18T03:23:32;79375.25;;;-146.33
37414;BMP280;23279;46.472;30.760;2022-12-18T03:26:00;79383.38;;;-146.33
37414;BMP280;23279;46.472;30.760;2022-12-18T03:28:26;79395.59;;;-146.33
37414;BMP280;23279;46.472;30.760;2022-12-18T03:30:55;79399.66;;;-146.33
37414;BMP280;23279;46.472;30.760;2022-12-18T03:33:55;79387.47;;;-146.33
37414;BMP280;23279;46.472;30.760;2022-12-18T03:36:13;79393.56;;;-146.33
37414;BMP280;23279;46.472;30.760;2022-12-18T03:38:39;79391.53;;;-146.33
37414;BMP280;23279;46.472;30.760;2022-12-18T03:43:37;79462.78;;;-146.33
37414;BMP280;23279;46.472;30.760;2022-12-18T03:48:42;79487.22;;;-146.33
37414;BMP280;23279;46.472;30.760;2022-12-18T03:51:10;79489.25;;;-146.33
37414;BMP280;23279;46.472;30.760;2022-12-18T03:53:41;79509.59;;;-146.33
37414;BMP280;23279;46.472;30.760;2022-12-18T03:56:10;79513.69;;;-146.33
37414;BMP280;23279;46.472;30.760;2022-12-18T03:58:37;79529.97;;;-146.33
37414;BMP280;23279;46.472;30.760;2022-12-18T04:01:04;79538.13;;;-146.33
37414;BMP280;23279;46.472;30.760;2022-12-18T04:03:31;79546.25;;;-146.33
37414;BMP280;23279;46.472;30.760;2022-12-18T04:05:57;79546.25;;;-146.33
37414;BMP280;23279;46.472;30.760;2022-12-18T04:08:23;79554.41;;;-146.33
37414;BMP280;23279;46.472;30.760;2022-12-18T04:10:49;79566.63;;;-146.33
37414;BMP280;23279;46.472;30.760;2022-12-18T04:13:21;79562.53;;;-146.33
37414;BMP280;23279;46.472;30.760;2022-12-18T04:15:47;79578.84;;;-146.33
37414;BMP280;23279;46.472;30.760;2022-12-18T04:18:12;79597.16;;;-146.33
37414;BMP280;23279;46.472;30.760;2022-12-18T04:20:37;79595.13;;;-146.33
37414;BMP280;23279;46.472;30.760;2022-12-18T04:23:03;79607.34;;;-146.33
37414;BMP280;23279;46.472;30.760;2022-12-18T04:25:28;79627.69;;;-146.33
37414;BMP280;23279;46.472;30.760;2022-12-18T04:27:53;79625.66;;;-146.33
37414;BMP280;23279;46.472;30.760;2022-12-18T04:30:18;79646.03;;;-146.33
37414;BMP280;23279;46.472;30.760;2022-12-18T04:32:44;79656.22;;;-146.33
37414;BMP280;23279;46.472;30.760;2022-12-18T04:35:09;79705.06;;;-146.33
37414;BMP280;23279;46.472;30.760;2022-12-18T04:37:35;79727.47;;;-146.33
37414;BMP280;23279;46.472;30.760;2022-12-18T04:40:00;79741.72;;;-146.33
37414;BMP280;23279;46.472;30.760;2022-12-18T04:42:26;79749.88;;;-146.33
37414;BMP280;23279;46.472;30.760;2022-12-18T04:44:51;79764.13;;;-146.33
37414;BMP280;23279;46.472;30.760;2022-12-18T04:47:16;79768.19;;;-146.33
37414;BMP280;23279;46.472;30.760;2022-12-18T04:49:41;79782.44;;;-146.33
37414;BMP280;23279;46.472;30.760;2022-12-18T04:52:07;79798.72;;;-146.33
37414;BMP280;23279;46.472;30.760;2022-12-18T04:54:32;79788.56;;;-146.33
37414;BMP280;23279;46.472;30.760;2022-12-18T04:56:57;79800.78;;;-146.33
37414;BMP280;23279;46.472;30.760;2022-12-18T04:59:23;79810.94;;;-146.33
37414;BMP280;23279;46.472;30.760;2022-12-18T05:01:48;79819.09;;;-146.33
37414;BMP280;23279;46.472;30.760;2022-12-18T05:04:13;79808.91;;;-146.33
37414;BMP280;23279;46.472;30.760;2022-12-18T05:06:38;79806.88;;;-146.33
37414;BMP280;23279;46.472;30.760;2022-12-18T05:09:04;79829.28;;;-146.33
37414;BMP280;23279;46.472;30.760;2022-12-18T05:11:29;79839.47;;;-146.33
37414;BMP280;23279;46.472;30.760;2022-12-18T05:13:54;79823.16;;;-146.33
37414;BMP280;23279;46.472;30.760;2022-12-18T05:16:20;79837.41;;;-146.33
37414;BMP280;23279;46.472;30.760;2022-12-18T05:18:46;79843.53;;;-146.33
37414;BMP280;23279;46.472;30.760;2022-12-18T05:21:11;79853.72;;;-146.33
37414;BMP280;23279;46.472;30.760;2022-12-18T05:23:36;79878.16;;;-146.33
37414;BMP280;23279;46.472;30.760;2022-12-18T05:26:04;79886.28;;;-146.33
37414;BMP280;23279;46.472;30.760;2022-12-18T05:28:30;79892.41;;;-146.33
37414;BMP280;23279;46.472;30.760;2022-12-18T05:30:56;79892.41;;;-146.33
37414;BMP280;23279;46.472;30.760;2022-12-18T05:33:23;79849.63;;;-146.33
37414;BMP280;23279;46.472;30.760;2022-12-18T05:35:51;79859.81;;;-146.33
37414;BMP280;23279;46.472;30.760;2022-12-18T05:38:17;79847.59;;;-146.33
37414;BMP280;23279;46.472;30.760;2022-12-18T05:40:43;79851.69;;;-146.33
37414;BMP280;23279;46.472;30.760;2022-12-18T05:43:08;79851.69;;;-146.33
37414;BMP280;23279;46.472;30.760;2022-12-18T05:45:36;79865.94;;;-146.33
37414;BMP280;23279;46.472;30.760;2022-12-18T05:48:01;79884.25;;;-146.33
37414;BMP280;23279;46.472;30.760;2022-12-18T05:50:27;79876.09;;;-146.33
37414;BMP280;23279;46.472;30.760;2022-12-18T05:52:52;79884.25;;;-146.33
37414;BMP280;23279;46.472;30.760;2022-12-18T05:55:17;79929.06;;;-146.33
37414;BMP280;23279;46.472;30.760;2022-12-18T05:57:42;79922.94;;;-146.33
37414;BMP280;23279;46.472;30.760;2022-12-18T06:00:08;79929.06;;;-146.33
37414;BMP280;23279;46.472;30.760;2022-12-18T06:02:33;79943.31;;;-146.33
37414;BMP280;23279;46.472;30.760;2022-12-18T06:04:59;79959.59;;;-146.33
37414;BMP280;23279;46.472;30.760;2022-12-18T06:07:24;79961.63;;;-146.33
37414;BMP280;23279;46.472;30.760;2022-12-18T06:09:49;79957.56;;;-146.33
37414;BMP280;23279;46.472;30.760;2022-12-18T06:12:14;80002.34;;;-146.33
37414;BMP280;23279;46.472;30.760;2022-12-18T06:14:40;79986.06;;;-146.33
37414;BMP280;23279;46.472;30.760;2022-12-18T06:17:05;80010.50;;;-146.33
37414;BMP280;23279;46.472;30.760;2022-12-18T06:19:30;80030.88;;;-146.33
37414;BMP280;23279;46.472;30.760;2022-12-18T06:21:55;80039.00;;;-146.33
37414;BMP280;23279;46.472;30.760;2022-12-18T06:24:23;80063.44;;;-146.33
37414;BMP280;23279;46.472;30.760;2022-12-18T06:26:49;80067.53;;;-146.33
37414;BMP280;23279;46.472;30.760;2022-12-18T06:29:14;80081.78;;;-146.33
37414;BMP280;23279;46.472;30.760;2022-12-18T06:31:39;80085.84;;;-146.33
37414;BMP280;23279;46.472;30.760;2022-12-18T06:34:04;80096.03;;;-146.33
37414;BMP280;23279;46.472;30.760;2022-12-18T06:36:30;80106.22;;;-146.33
37414;BMP280;23279;46.472;30.760;2022-12-18T06:38:55;80120.47;;;-146.33
37414;BMP280;23279;46.472;30.760;2022-12-18T06:41:21;80102.13;;;-146.33
37414;BMP280;23279;46.472;30.760;2022-12-18T06:43:46;80102.13;;;-146.33
37414;BMP280;23279;46.472;30.760;2022-12-18T06:46:11;80114.34;;;-146.33
37414;BMP280;23279;46.472;30.760;2022-12-18T06:48:37;80116.41;;;-146.33
37414;BMP280;23279;46.472;30.760;2022-12-18T06:51:02;80114.34;;;-146.33
37414;BMP280;23279;46.472;30.760;2022-12-18T06:53:28;80128.63;;;-146.33
37414;BMP280;23279;46.472;30.760;2022-12-18T06:55:59;80126.56;;;-146.33
37414;BMP280;23279;46.472;30.760;2022-12-18T06:58:24;80140.84;;;-146.33
37414;BMP280;23279;46.472;30.760;2022-12-18T07:00:49;80134.72;;;-146.33
37414;BMP280;23279;46.472;30.760;2022-12-18T07:03:15;80132.69;;;-146.33
37414;BMP280;23279;46.472;30.760;2022-12-18T07:05:40;80136.75;;;-146.33
37414;BMP280;23279;46.472;30.760;2022-12-18T07:08:05;80116.41;;;-146.33
37414;BMP280;23279;46.472;30.760;2022-12-18T07:10:31;80116.41;;;-146.33
37414;BMP280;23279;46.472;30.760;2022-12-18T07:12:56;80124.53;;;-146.33
37414;BMP280;23279;46.472;30.760;2022-12-18T07:15:21;80100.09;;;-146.33
37414;BMP280;23279;46.472;30.760;2022-12-18T07:17:47;80112.31;;;-146.33
37414;BMP280;23279;46.472;30.760;2022-12-18T07:20:12;80102.13;;;-146.33
37414;BMP280;23279;46.472;30.760;2022-12-18T07:22:37;80128.63;;;-146.33
37414;BMP280;23279;46.472;30.760;2022-12-18T07:25:03;80144.91;;;-146.33
37414;BMP280;23279;46.472;30.760;2022-12-18T07:27:28;80144.91;;;-146.33
37414;BMP280;23279;46.472;30.760;2022-12-18T07:29:53;80116.41;;;-146.33
37414;BMP280;23279;46.472;30.760;2022-12-18T07:32:19;80159.16;;;-146.33
37414;BMP280;23279;46.472;30.760;2022-12-18T07:34:45;80185.63;;;-146.33
37414;BMP280;23279;46.472;30.760;2022-12-18T07:37:10;80193.78;;;-146.33
37414;BMP280;23279;46.472;30.760;2022-12-18T07:39:35;80210.06;;;-146.33
37414;BMP280;23279;46.472;30.760;2022-12-18T07:42:00;80206.00;;;-146.33
37414;BMP280;23279;46.472;30.760;2022-12-18T07:44:44;80203.97;;;-146.33
37414;BMP280;23279;46.472;30.760;2022-12-18T07:47:10;80230.44;;;-146.33
37414;BMP280;23279;46.472;30.760;2022-12-18T07:49:35;80216.19;;;-146.33
37414;BMP280;23279;46.472;30.760;2022-12-18T07:52:00;80189.72;;;-146.33
37414;BMP280;23279;46.472;30.760;2022-12-18T07:54:26;80169.34;;;-146.33
37414;BMP280;23279;46.472;30.760;2022-12-18T07:56:52;80140.84;;;-146.33
37414;BMP280;23279;46.472;30.760;2022-12-18T07:59:17;80126.56;;;-146.33
37414;BMP280;23279;46.472;30.760;2022-12-18T08:01:43;80163.22;;;-146.33
37414;BMP280;23279;46.472;30.760;2022-12-18T08:04:08;80185.63;;;-146.33
37414;BMP280;23279;46.472;30.760;2022-12-18T08:06:33;80210.06;;;-146.33
37414;BMP280;23279;46.472;30.760;2022-12-18T08:08:59;80232.47;;;-146.33
37414;BMP280;23279;46.472;30.760;2022-12-18T08:11:25;80246.72;;;-146.33
37414;BMP280;23279;46.472;30.760;2022-12-18T08:13:50;80234.50;;;-146.33
37414;BMP280;23279;46.472;30.760;2022-12-18T08:16:16;80265.06;;;-146.33
37414;BMP280;23279;46.472;30.760;2022-12-18T08:18:41;80295.59;;;-146.33
37414;BMP280;23279;46.472;30.760;2022-12-18T08:21:07;80320.03;;;-146.33
37414;BMP280;23279;46.472;30.760;2022-12-18T08:23:33;80342.44;;;-146.33
37414;BMP280;23279;46.472;30.760;2022-12-18T08:25:58;80356.69;;;-146.33
37414;BMP280;23279;46.472;30.760;2022-12-18T08:28:23;80360.78;;;-146.33
37414;BMP280;23279;46.472;30.760;2022-12-18T08:30:51;80417.81;;;-146.33
37414;BMP280;23279;46.472;30.760;2022-12-18T08:33:16;80462.59;;;-146.33
37414;BMP280;23279;46.472;30.760;2022-12-18T08:35:42;80464.63;;;-146.33
37414;BMP280;23279;46.472;30.760;2022-12-18T08:38:07;80499.25;;;-146.33
37414;BMP280;23279;46.472;30.760;2022-12-18T08:40:32;80527.78;;;-146.33
37414;BMP280;23279;46.472;30.760;2022-12-18T08:42:58;80546.09;;;-146.33
37414;BMP280;23279;46.472;30.760;2022-12-18T08:45:41;80568.50;;;-146.33
37414;BMP280;23279;46.472;30.760;2022-12-18T08:48:07;80564.44;;;-146.33
37414;BMP280;23279;46.472;30.760;2022-12-18T08:50:32;80566.47;;;-146.33
37414;BMP280;23279;46.472;30.760;2022-12-18T08:52:57;80564.44;;;-146.33
37414;BMP280;23279;46.472;30.760;2022-12-18T08:55:23;80560.38;;;-146.33
37414;BMP280;23279;46.472;30.760;2022-12-18T08:57:48;80597.03;;;-146.33
37414;BMP280;23279;46.472;30.760;2022-12-18T09:00:14;80633.69;;;-146.33
37414;BMP280;23279;46.472;30.760;2022-12-18T09:02:40;80621.47;;;-146.33
37414;BMP280;23279;46.472;30.760;2022-12-18T09:05:05;80649.97;;;-146.33
37414;BMP280;23279;46.472;30.760;2022-12-18T09:07:30;80627.56;;;-146.33
37414;BMP280;23279;46.472;30.760;2022-12-18T09:09:56;80674.44;;;-146.33
37414;BMP280;23279;46.472;30.760;2022-12-18T09:12:21;80670.34;;;-146.33
37414;BMP280;23279;46.472;30.760;2022-12-18T09:14:46;80694.78;;;-146.33
37414;BMP280;23279;46.472;30.760;2022-12-18T09:17:11;80694.78;;;-146.33
37414;BMP280;23279;46.472;30.760;2022-12-18T09:19:37;80672.38;;;-146.33
37414;BMP280;23279;46.472;30.760;2022-12-18T09:22:02;80678.50;;;-146.33
37414;BMP280;23279;46.472;30.760;2022-12-18T09:24:27;80692.75;;;-146.33
37414;BMP280;23279;46.472;30.760;2022-12-18T09:26:53;80674.44;;;-146.33
37414;BMP280;23279;46.472;30.760;2022-12-18T09:29:19;80672.38;;;-146.33
37414;BMP280;23279;46.472;30.760;2022-12-18T09:31:45;80680.53;;;-146.33
37414;BMP280;23279;46.472;30.760;2022-12-18T09:34:10;80690.72;;;-146.33
37414;BMP280;23279;46.472;30.760;2022-12-18T09:36:35;80674.44;;;-146.33
37414;BMP280;23279;46.472;30.760;2022-12-18T09:39:00;80688.69;;;-146.33
37414;BMP280;23279;46.472;30.760;2022-12-18T09:46:50;80739.59;;;-146.33
37414;BMP280;23279;46.472;30.760;2022-12-18T09:49:17;80747.75;;;-146.33
37414;BMP280;23279;46.472;30.760;2022-12-18T09:51:45;80749.78;;;-146.33
37414;BMP280;23279;46.472;30.760;2022-12-18T09:54:45;80751.81;;;-146.33
37414;BMP280;23279;46.472;30.760;2022-12-18T09:57:03;80719.22;;;-146.33
37414;BMP280;23279;46.472;30.760;2022-12-18T09:59:37;80733.50;;;-146.33
37414;BMP280;23279;46.472;30.760;2022-12-18T10:02:18;80739.59;;;-146.33
37414;BMP280;23279;46.472;30.760;2022-12-18T10:04:45;80759.97;;;-146.33
37414;BMP280;23279;46.472;30.760;2022-12-18T10:07:21;80753.84;;;-146.33
37414;BMP280;23279;46.472;30.760;2022-12-18T10:09:55;80731.44;;;-146.33
37414;BMP280;23279;46.472;30.760;2022-12-18T10:12:25;80739.59;;;-146.33
37414;BMP280;23279;46.472;30.760;2022-12-18T10:25:28;80751.81;;;-146.33
37414;BMP280;23279;46.472;30.760;2022-12-18T10:27:45;80755.91;;;-146.33
37414;BMP280;23279;46.472;30.760;2022-12-18T10:30:14;80735.53;;;-146.33
37414;BMP280;23279;46.472;30.760;2022-12-18T10:32:40;80727.38;;;-146.33
37414;BMP280;23279;46.472;30.760;2022-12-18T10:35:08;80725.34;;;-146.33
37414;BMP280;23279;46.472;30.760;2022-12-18T10:37:36;80741.63;;;-146.33
37414;BMP280;23279;46.472;30.760;2022-12-18T10:40:11;80735.53;;;-146.33
37414;BMP280;23279;46.472;30.760;2022-12-18T10:42:37;80698.88;;;-146.33
37414;BMP280;23279;46.472;30.760;2022-12-18T10:45:21;80711.09;;;-146.33
37414;BMP280;23279;46.472;30.760;2022-12-18T10:47:47;80711.09;;;-146.33
37414;BMP280;23279;46.472;30.760;2022-12-18T10:50:20;80757.94;;;-146.33
37414;BMP280;23279;46.472;30.760;2022-12-18T10:52:53;80800.72;;;-146.33
37414;BMP280;23279;46.472;30.760;2022-12-18T10:55:19;80790.53;;;-146.33
37414;BMP280;23279;46.472;30.760;2022-12-18T10:57:44;80812.94;;;-146.33
37414;BMP280;23279;46.472;30.760;2022-12-18T11:00:29;80808.84;;;-146.33
37414;BMP280;23279;46.472;30.760;2022-12-18T11:02:54;80812.94;;;-146.33
37414;BMP280;23279;46.472;30.760;2022-12-18T11:07:49;80817.00;;;-146.33
37414;BMP280;23279;46.472;30.760;2022-12-18T11:10:25;80817.00;;;-146.33
37414;BMP280;23279;46.472;30.760;2022-12-18T11:12:51;80843.47;;;-146.33
37414;BMP280;23279;46.472;30.760;2022-12-18T11:15:20;80869.97;;;-146.33
37414;BMP280;23279;46.472;30.760;2022-12-18T11:17:48;80817.00;;;-146.33
37414;BMP280;23279;46.472;30.760;2022-12-18T11:22:54;80819.03;;;-146.33
37414;BMP280;23279;46.472;30.760;2022-12-18T11:25:20;80812.94;;;-146.33
37414;BMP280;23279;46.472;30.760;2022-12-18T11:27:53;80853.66;;;-146.33
37414;BMP280;23279;46.472;30.760;2022-12-18T11:32:44;80865.88;;;-146.33
37414;BMP280;23279;46.472;30.760;2022-12-18T11:37:41;80896.44;;;-146.33
37414;BMP280;23279;46.472;30.760;2022-12-18T11:40:18;80882.19;;;-146.33
37414;BMP280;23279;46.472;30.760;2022-12-18T11:45:26;80857.75;;;-146.33
37414;BMP280;23279;46.472;30.760;2022-12-18T11:48:00;80857.75;;;-146.33
37414;BMP280;23279;46.472;30.760;2022-12-18T11:50:29;80869.97;;;-146.33
37414;BMP280;23279;46.472;30.760;2022-12-18T11:52:56;80853.66;;;-146.33
37414;BMP280;23279;46.472;30.760;2022-12-18T12:00:19;80872.00;;;-146.33
37414;BMP280;23279;46.472;30.760;2022-12-18T12:05:43;80882.19;;;-146.33
37414;BMP280;23279;46.472;30.760;2022-12-18T12:16:23;80947.38;;;-146.33
37414;BMP280;23279;46.472;30.760;2022-12-18T12:21:23;80916.81;;;-146.33
37414;BMP280;23279;46.472;30.760;2022-12-18T12:23:57;80939.22;;;-146.33
37414;BMP280;23279;46.472;30.760;2022-12-18T12:34:31;80955.50;;;-146.33
37414;BMP280;23279;46.472;30.760;2022-12-18T12:39:20;80953.47;;;-146.33
37414;BMP280;23279;46.472;30.760;2022-12-18T12:41:47;80969.78;;;-146.33
37414;BMP280;23279;46.472;30.760;2022-12-18T12:44:50;80975.88;;;-146.33
37414;BMP280;23279;46.472;30.760;2022-12-18T12:47:20;80959.59;;;-146.33
37414;BMP280;23279;46.472;30.760;2022-12-18T12:49:46;80967.75;;;-146.33
37414;BMP280;23279;46.472;30.760;2022-12-18T12:52:17;80967.75;;;-146.33
37414;BMP280;23279;46.472;30.760;2022-12-18T12:54:43;80967.75;;;-146.33
37414;BMP280;23279;46.472;30.760;2022-12-18T12:57:20;80961.63;;;-146.33
37414;BMP280;23279;46.472;30.760;2022-12-18T13:05:29;80943.28;;;-146.33
37414;BMP280;23279;46.472;30.760;2022-12-18T13:08:11;80935.16;;;-146.33
37414;BMP280;23279;46.472;30.760;2022-12-18T13:10:39;80945.31;;;-146.33
37414;BMP280;23279;46.472;30.760;2022-12-18T13:15:36;80939.22;;;-146.33
37414;BMP280;23279;46.472;30.760;2022-12-18T13:18:04;80941.25;;;-146.33
37414;BMP280;23279;46.472;30.760;2022-12-18T13:20:43;80959.59;;;-146.33
37414;BMP280;23279;46.472;30.760;2022-12-18T13:31:14;80947.38;;;-146.33
37414;BMP280;23279;46.472;30.760;2022-12-18T13:33:43;80955.50;;;-146.33
37414;BMP280;23279;46.472;30.760;2022-12-18T13:41:44;80955.50;;;-146.33
37414;BMP280;23279;46.472;30.760;2022-12-18T13:46:55;80959.59;;;-146.33
37414;BMP280;23279;46.472;30.760;2022-12-18T13:51:49;80992.19;;;-146.33
37414;BMP280;23279;46.472;30.760;2022-12-18T13:54:19;81000.31;;;-146.33
37414;BMP280;23279;46.472;30.760;2022-12-18T13:56:45;81020.69;;;-146.33
37414;BMP280;23279;46.472;30.760;2022-12-18T13:59:18;80988.09;;;-146.33
37414;BMP280;23279;46.472;30.760;2022-12-18T14:01:48;80988.09;;;-146.33
37414;BMP280;23279;46.472;30.760;2022-12-18T14:04:19;81028.84;;;-146.33
37414;BMP280;23279;46.472;30.760;2022-12-18T14:06:45;81010.50;;;-146.33
37414;BMP280;23279;46.472;30.760;2022-12-18T14:09:18;80992.19;;;-146.33
37414;BMP280;23279;46.472;30.760;2022-12-18T14:11:46;81022.75;;;-146.33
37414;BMP280;23279;46.472;30.760;2022-12-18T14:14:13;81037.00;;;-146.33
37414;BMP280;23279;46.472;30.760;2022-12-18T14:16:38;81049.22;;;-146.33
37414;BMP280;23279;46.472;30.760;2022-12-18T14:19:08;81065.50;;;-146.33
37414;BMP280;23279;46.472;30.760;2022-12-18T14:21:34;81063.47;;;-146.33
37414;BMP280;23279;46.472;30.760;2022-12-18T14:24:04;81077.75;;;-146.33
37414;BMP280;23279;46.472;30.760;2022-12-18T14:26:29;81100.16;;;-146.33
37414;BMP280;23279;46.472;30.760;2022-12-18T14:29:41;81106.25;;;-146.33
37414;BMP280;23279;46.472;30.760;2022-12-18T14:31:41;81116.44;;;-146.33
37414;BMP280;23279;46.472;30.760;2022-12-18T14:34:08;81114.41;;;-146.33
37414;BMP280;23279;46.472;30.760;2022-12-18T14:36:39;81130.69;;;-146.33
37414;BMP280;23279;46.472;30.760;2022-12-18T14:39:04;81102.19;;;-146.33
37414;BMP280;23279;46.472;30.760;2022-12-18T14:41:30;81134.78;;;-146.33
37414;BMP280;23279;46.472;30.760;2022-12-18T14:43:56;81155.16;;;-146.33
37414;BMP280;23279;46.472;30.760;2022-12-18T14:48:55;81159.22;;;-146.33
37414;BMP280;23279;46.472;30.760;2022-12-18T14:51:22;81144.97;;;-146.33
37414;BMP280;23279;46.472;30.760;2022-12-18T14:53:48;81147.00;;;-146.33
37414;BMP280;23279;46.472;30.760;2022-12-18T14:56:15;81157.19;;;-146.33
37414;BMP280;23279;46.472;30.760;2022-12-18T14:58:48;81138.84;;;-146.33
37414;BMP280;23279;46.472;30.760;2022-12-18T15:01:30;81153.13;;;-146.33
37414;BMP280;23279;46.472;30.760;2022-12-18T15:03:57;81136.81;;;-146.33
37414;BMP280;23279;46.472;30.760;2022-12-18T15:06:35;81155.16;;;-146.33
37414;BMP280;23279;46.472;30.760;2022-12-18T15:09:02;81140.88;;;-146.33
37414;BMP280;23279;46.472;30.760;2022-12-18T15:14:21;81165.34;;;-146.33
37414;BMP280;23279;46.472;30.760;2022-12-18T15:16:49;81147.00;;;-146.33
37414;BMP280;23279;46.472;30.760;2022-12-18T15:19:15;81136.81;;;-146.33
37414;BMP280;23279;46.472;30.760;2022-12-18T15:21:42;81153.13;;;-146.33
37414;BMP280;23279;46.472;30.760;2022-12-18T15:24:13;81147.00;;;-146.33
37414;BMP280;23279;46.472;30.760;2022-12-18T15:26:41;81159.22;;;-146.33
37414;BMP280;23279;46.472;30.760;2022-12-18T15:29:15;81151.06;;;-146.33